Buffalo, NY (14201)

11:31 AM EST on December 29, 2014 (GMT -0500)
Delaware West Ferry | Change Station
CLOSE
Current Station
Personal Weather Station
Location: Buffalo, NY
Elevation: 669 ft
Nearby Weather Stations

Elev 669 ft 42.92 °N, 78.87 °W | Updated 12 seconds ago

Overcast
Overcast
31.5 °F
Feels Like 28 °F
N
4.0
Wind Variable Wind from WNW
Gusts 5.0 mph

Today
High -- | Low -- °F
--% Chance of Precip.
Yesterday
High -- | Low -- °F
Precip. -- in
7:46 AM 4:49 PM
First Quarter, 60% visible
Pressure 30.27 in
Visibility 10.0 miles
Clouds Few 3200 ft
Overcast 4800 ft
Windchill 28 °F
Dew Point 21 °F
Humidity 66%
Rainfall 0.00 in
Snow Depth Not available.
UV 0.9 out of 12
Pollen .10 out of 12
Air Quality Not available.
Flu Activity Not available.
METAR KBUF 291554Z 35008KT 10SM FEW032 OVC048 M01/M07 A3024 RMK AO2 SLP250 T10111072

More Conditions Fewer Conditions

Pressure 30.27 in
Visibility 10.0 miles
Clouds Few 3200 ft
Overcast 4800 ft
Windchill 28 °F
Dew Point 21 °F
Humidity 66%
Rainfall 0.00 in
Snow Depth Not available.
UV 0.9 out of 12
Pollen .10 out of 12
Air Quality Not available.
Flu Activity Not available.
METAR KBUF 291554Z 35008KT 10SM FEW032 OVC048 M01/M07 A3024 RMK AO2 SLP250 T10111072

More Conditions Fewer Conditions

10-Day Weather Forecast

Almanac

Astronomy

Dec. 29, 2014 Rise Set
Actual Time
Civil Twilight
Nautical Twilight
Astronomical Twilight
Moon
Length of Visible Light
Length of Day
Tomorrow will be .
, % of the Moon is Illuminated

Today's Extremes

State Highs State Lows

Community

WunderPhotos

Upload Photos

1,781,641 photos uploaded!

WunderBlogs® & News

Nearby

Air Quality

  Air Quality AQ Index Pollutant
Not available.

Snow Depth

Station Depth Elevation

Earthquake Activity

City Distance Mag. Time & Date
Minimum magnitude displayed is 2.5.

Coastal Water Temperatures

Place Temperature

Nearby Weather Stations